Time;durP1;ratioP1;P1;durP2;ratioP2;P2;SDS_P1;SDS_P2;PMS_P1;PMS_P2;Temp;Humidity;BMP_temperature;BMP_pressure;BME280_temperature;BME280_humidity;BME280_pressure;Samples;Min_cycle;Max_cycle;Signal;HPM_P1;HPM_P2
2021/08/04 00:01:37;;;;;;;;;6.00;6.00;;;;;20.60;50.60;100773.53;5054878;28;45572;-58
2021/08/04 00:04:03;;;;;;;;;6.00;6.00;;;;;20.56;50.87;100778.22;5074308;28;45751;-59
2021/08/04 00:06:28;;;;;;;;;8.00;8.00;;;;;20.55;50.40;100779.19;5057850;28;47884;-59
2021/08/04 00:08:54;;;;;;;;;7.25;6.75;;;;;20.54;50.51;100777.44;5056588;28;45357;-59
2021/08/04 00:11:20;;;;;;;;;8.00;8.00;;;;;20.50;50.26;100783.13;5058805;28;45630;-59
2021/08/04 00:13:45;;;;;;;;;5.00;5.00;;;;;20.47;50.71;100778.81;5055710;27;50246;-59
2021/08/04 00:16:11;;;;;;;;;13.00;9.25;;;;;20.45;50.89;100785.22;5058337;28;47579;-59
2021/08/04 00:18:36;;;;;;;;;9.00;8.50;;;;;20.42;51.03;100780.03;5057908;28;45396;-59
2021/08/04 00:21:02;;;;;;;;;9.00;7.50;;;;;20.39;50.96;100785.59;5055675;28;45364;-59
2021/08/04 00:23:28;;;;;;;;;11.00;9.75;;;;;20.36;51.29;100775.88;5057753;28;45389;-59
2021/08/04 00:25:53;;;;;;;;;10.25;10.25;;;;;20.36;51.40;100780.41;5057702;28;46384;-59
2021/08/04 00:28:19;;;;;;;;;9.00;8.50;;;;;20.35;51.53;100775.97;5081432;27;45978;-59
2021/08/04 00:30:44;;;;;;;;;8.25;6.75;;;;;20.32;51.60;100777.00;5054517;28;45761;-59
2021/08/04 00:33:10;;;;;;;;;8.00;8.00;;;;;20.31;51.49;100774.41;5055154;28;45483;-59
2021/08/04 00:35:35;;;;;;;;;9.25;8.75;;;;;20.28;51.58;100776.31;5058123;28;46821;-59
2021/08/04 00:38:08;;;;;;;;;7.75;7.75;;;;;20.25;51.86;100778.34;5053109;28;45382;-59
2021/08/04 00:40:34;;;;;;;;;13.00;13.00;;;;;20.24;51.39;100774.78;5056770;28;45436;-59
2021/08/04 00:42:59;;;;;;;;;107.33;101.67;;;;;20.24;51.77;100768.53;5057874;28;45545;-59
2021/08/04 00:45:25;;;;;;;;;63.25;50.25;;;;;20.24;51.79;100774.78;5057095;28;47174;-59
2021/08/04 00:47:50;;;;;;;;;19.50;17.00;;;;;20.23;51.67;100764.97;5056852;28;45381;-59
2021/08/04 00:50:16;;;;;;;;;17.25;16.25;;;;;20.23;51.82;100774.88;5058187;28;45321;-59
2021/08/04 00:52:41;;;;;;;;;33.50;30.50;;;;;20.22;52.01;100768.63;5056123;28;45487;-59
2021/08/04 00:55:07;;;;;;;;;16.00;16.00;;;;;20.22;52.16;100765.94;5057951;28;46129;-59
2021/08/04 00:57:32;;;;;;;;;11.00;11.00;;;;;20.21;52.05;100761.50;5058622;28;45373;-59
2021/08/04 00:59:58;;;;;;;;;9.00;9.00;;;;;20.22;51.96;100760.56;5060847;27;45412;-59
2021/08/04 01:02:43;;;;;;;;;8.50;7.50;;;;;20.23;51.75;100761.41;5061027;28;45332;-59
2021/08/04 01:05:17;;;;;;;;;11.75;10.75;;;;;20.23;51.94;100751.50;5075378;27;47417;-59
2021/08/04 01:07:53;;;;;;;;;7.00;7.00;;;;;20.22;51.86;100755.16;5060796;28;45364;-59
2021/08/04 01:10:28;;;;;;;;;11.25;11.00;;;;;20.21;51.89;100739.97;5075300;27;45308;-59
2021/08/04 01:13:21;;;;;;;;;9.00;8.33;;;;;20.20;52.48;100746.31;5063286;27;45631;-59
2021/08/04 01:16:13;;;;;;;;;9.25;9.25;;;;;20.20;52.30;100749.00;5063991;28;47347;-59
2021/08/04 01:18:51;;;;;;;;;8.67;8.67;;;;;20.18;52.11;100748.19;5063184;28;45308;-59
2021/08/04 01:21:26;;;;;;;;;11.75;11.75;;;;;20.16;52.36;100747.44;5060096;28;45776;-59
2021/08/04 01:24:30;;;;;;;;;11.33;11.00;;;;;20.14;52.08;100743.09;5055925;28;45543;-59
2021/08/04 01:26:56;;;;;;;;;10.33;10.33;;;;;20.12;52.36;100750.41;5072653;27;47405;-59
2021/08/04 01:29:24;;;;;;;;;13.25;10.50;;;;;20.11;52.48;100737.91;5073441;27;45246;-60
2021/08/04 01:31:54;;;;;;;;;9.00;9.00;;;;;20.09;52.88;100739.84;5056365;28;45515;-60
2021/08/04 01:34:20;;;;;;;;;9.00;9.00;;;;;20.06;52.61;100735.47;5056103;28;45473;-59
2021/08/04 01:36:48;;;;;;;;;11.00;11.00;;;;;20.05;52.45;100736.44;5052537;28;47796;-59
2021/08/04 01:39:15;;;;;;;;;11.33;9.00;;;;;20.03;53.03;100737.50;5048165;28;45287;-59
2021/08/04 01:41:42;;;;;;;;;10.25;10.25;;;;;20.01;52.94;100734.03;5059266;28;45627;-60
2021/08/04 01:44:08;;;;;;;;;9.67;9.67;;;;;19.99;53.06;100734.13;5061021;28;45685;-60
2021/08/04 01:46:35;;;;;;;;;10.67;9.00;;;;;19.98;52.59;100727.88;5059915;28;47309;-59
2021/08/04 01:49:03;;;;;;;;;12.00;10.50;;;;;19.97;53.15;100733.38;5059361;28;45456;-59
2021/08/04 01:51:30;;;;;;;;;8.25;8.00;;;;;19.95;52.76;100729.91;5060735;28;45358;-59
2021/08/04 01:53:56;;;;;;;;;11.25;9.75;;;;;19.95;53.21;100737.97;5085433;27;45408;-60
2021/08/04 01:56:22;;;;;;;;;9.00;9.00;;;;;19.93;53.06;100729.97;5053605;28;47381;-59
2021/08/04 01:58:48;;;;;;;;;11.50;10.25;;;;;19.93;53.22;100732.66;5050634;28;45467;-60
2021/08/04 02:01:13;;;;;;;;;9.00;9.00;;;;;19.92;53.47;100727.38;5060261;28;45355;-59
2021/08/04 02:03:39;;;;;;;;;9.00;9.00;;;;;19.92;53.55;100717.47;5059759;28;45534;-59
2021/08/04 02:06:23;;;;;;;;;11.00;11.00;;;;;19.94;53.64;100714.66;5060509;28;46398;-59
2021/08/04 02:09:06;;;;;;;;;11.00;9.67;;;;;19.94;53.67;100720.06;5059998;28;45500;-59
2021/08/04 02:11:53;;;;;;;;;9.00;9.00;;;;;19.94;53.75;100723.63;5059618;28;45452;-59
2021/08/04 02:14:31;;;;;;;;;12.33;10.67;;;;;19.93;53.72;100721.88;5048429;28;46574;-59
2021/08/04 02:17:27;;;;;;;;;8.33;7.33;;;;;19.91;53.70;100715.72;5053151;28;48306;-59
2021/08/04 02:20:06;;;;;;;;;10.00;10.00;;;;;19.89;53.51;100714.09;5053607;28;45385;-59
2021/08/04 02:22:49;;;;;;;;;10.00;10.00;;;;;19.88;53.72;100715.06;5051162;28;45504;-59
2021/08/04 02:25:17;;;;;;;;;9.00;8.00;;;;;19.87;53.82;100716.00;5058821;28;45455;-58
2021/08/04 02:27:44;;;;;;;;;7.33;7.33;;;;;19.87;54.02;100713.31;5079436;27;47947;-59
2021/08/04 02:30:14;;;;;;;;;10.50;8.75;;;;;19.86;53.73;100711.59;5053001;28;45389;-59
2021/08/04 02:32:41;;;;;;;;;11.25;11.25;;;;;19.83;53.85;100715.34;5054688;28;45876;-59
2021/08/04 02:35:07;;;;;;;;;9.50;9.50;;;;;19.81;54.00;100711.84;5060186;28;45650;-59
2021/08/04 02:37:34;;;;;;;;;11.00;10.25;;;;;19.80;53.77;100704.72;5056716;28;45373;-59
2021/08/04 02:40:00;;;;;;;;;8.33;8.33;;;;;19.79;54.04;100696.75;5040339;28;45728;-59
2021/08/04 02:42:27;;;;;;;;;8.67;8.67;;;;;19.77;53.95;100693.28;5057090;28;45570;-58
2021/08/04 02:44:52;;;;;;;;;15.00;10.67;;;;;19.73;54.06;100689.91;5059754;27;45316;-59
2021/08/04 02:47:19;;;;;;;;;9.00;8.00;;;;;19.72;54.40;100693.56;5059122;27;47237;-60
2021/08/04 02:49:45;;;;;;;;;7.00;7.00;;;;;19.72;54.68;100692.72;5059768;28;46451;-58
2021/08/04 02:52:12;;;;;;;;;9.67;9.67;;;;;19.68;54.13;100697.38;5059534;28;45329;-58
2021/08/04 02:54:37;;;;;;;;;14.00;10.75;;;;;19.67;54.10;100691.13;5058583;28;45515;-59
2021/08/04 02:57:04;;;;;;;;;12.75;10.00;;;;;19.66;54.75;100697.47;5079687;27;46675;-59
2021/08/04 02:59:30;;;;;;;;;10.75;10.75;;;;;19.64;54.25;100694.03;5083545;27;45406;-59
2021/08/04 03:01:55;;;;;;;;;7.67;7.67;;;;;19.63;54.61;100691.44;5050990;28;45600;-59
2021/08/04 03:04:20;;;;;;;;;9.00;9.00;;;;;19.62;54.63;100693.25;5059185;28;45429;-59
2021/08/04 03:06:46;;;;;;;;;8.00;8.00;;;;;19.62;54.69;100692.38;5059468;28;47175;-59
2021/08/04 03:09:11;;;;;;;;;7.67;7.67;;;;;19.59;54.44;100692.56;5058286;28;45415;-59
2021/08/04 03:11:37;;;;;;;;;9.00;9.00;;;;;19.59;54.71;100690.75;5059522;27;45296;-59
2021/08/04 03:14:03;;;;;;;;;10.00;10.00;;;;;19.57;54.62;100687.28;5059653;27;45501;-59
2021/08/04 03:16:29;;;;;;;;;12.33;11.00;;;;;19.59;54.98;100696.13;5057538;28;45874;-59
2021/08/04 03:18:54;;;;;;;;;9.33;9.33;;;;;19.57;54.61;100700.75;5058812;28;45747;-59
2021/08/04 03:21:19;;;;;;;;;10.33;9.00;;;;;19.54;54.41;100694.63;5059349;28;45472;-59
2021/08/04 03:23:45;;;;;;;;;9.25;9.25;;;;;19.52;54.71;100694.72;5058006;28;45366;-59
2021/08/04 03:26:10;;;;;;;;;10.33;10.00;;;;;19.50;54.68;100703.84;5059044;28;48412;-59
2021/08/04 03:28:36;;;;;;;;;9.00;9.00;;;;;19.45;54.77;100697.88;5058961;28;45580;-59
2021/08/04 03:31:01;;;;;;;;;9.67;9.67;;;;;19.44;54.83;100691.63;5055442;27;45632;-59
2021/08/04 03:33:27;;;;;;;;;9.25;9.25;;;;;19.45;54.66;100690.66;5066520;27;45424;-59
2021/08/04 03:35:52;;;;;;;;;11.33;8.00;;;;;19.45;54.96;100681.72;5068811;27;48288;-59
2021/08/04 03:38:18;;;;;;;;;8.00;8.00;;;;;19.44;54.91;100672.78;5064472;28;45319;-59
2021/08/04 03:40:43;;;;;;;;;11.00;10.00;;;;;19.44;55.17;100663.81;5064501;28;45473;-59
2021/08/04 03:43:09;;;;;;;;;12.33;9.33;;;;;19.42;55.19;100666.59;5063837;28;45469;-59
2021/08/04 03:45:34;;;;;;;;;13.33;13.00;;;;;19.40;54.98;100673.91;5067716;28;48671;-59
2021/08/04 03:48:00;;;;;;;;;12.00;10.00;;;;;19.38;55.50;100668.63;5068833;27;45475;-59
2021/08/04 03:50:26;;;;;;;;;10.00;10.00;;;;;19.36;55.62;100669.66;5062423;28;45500;-59
2021/08/04 03:52:51;;;;;;;;;11.67;11.67;;;;;19.34;55.35;100667.06;5072482;28;45685;-59
2021/08/04 03:55:17;;;;;;;;;12.67;11.33;;;;;19.33;55.17;100677.94;5063952;28;45990;-59
2021/08/04 03:57:42;;;;;;;;;11.00;9.33;;;;;19.32;55.51;100682.44;5056887;28;45326;-59
2021/08/04 04:00:09;;;;;;;;;11.33;11.33;;;;;19.31;55.22;100682.50;5069693;28;45435;-59
2021/08/04 04:02:34;;;;;;;;;9.00;7.00;;;;;19.29;55.55;100689.81;5065952;28;45405;-58
2021/08/04 04:05:00;;;;;;;;;7.33;7.33;;;;;19.28;55.36;100696.16;5092135;27;47422;-59
2021/08/04 04:07:25;;;;;;;;;10.67;10.00;;;;;19.25;55.26;100699.88;5074366;27;45515;-59
2021/08/04 04:09:51;;;;;;;;;11.00;10.67;;;;;19.21;55.19;100701.03;5075991;27;45577;-59
2021/08/04 04:12:16;;;;;;;;;9.33;9.33;;;;;19.19;55.42;100704.78;5074280;28;45321;-58
2021/08/04 04:14:41;;;;;;;;;10.67;10.67;;;;;19.14;55.45;100699.63;5066807;27;47184;-59
2021/08/04 04:17:07;;;;;;;;;10.67;8.00;;;;;19.11;55.88;100703.38;5058384;28;45446;-59
2021/08/04 04:19:32;;;;;;;;;10.67;10.67;;;;;19.10;55.55;100708.84;5087897;27;45722;-59
2021/08/04 04:21:58;;;;;;;;;10.67;10.00;;;;;19.05;55.50;100697.47;5058251;27;45262;-59
2021/08/04 04:24:23;;;;;;;;;12.00;10.75;;;;;19.01;55.45;100698.59;5057647;28;47281;-59
2021/08/04 04:26:50;;;;;;;;;11.67;11.67;;;;;18.98;55.85;100696.09;5072856;28;45388;-59
2021/08/04 04:29:16;;;;;;;;;9.67;9.67;;;;;18.99;55.87;100689.75;5057866;28;45641;-59
2021/08/04 04:31:42;;;;;;;;;12.67;11.33;;;;;19.01;55.90;100690.53;5056433;28;45716;-59
2021/08/04 04:34:07;;;;;;;;;13.00;10.33;;;;;19.02;55.65;100684.19;5056499;28;48164;-58
2021/08/04 04:36:33;;;;;;;;;10.33;8.67;;;;;19.03;55.67;100683.25;5077145;27;45946;-58
2021/08/04 04:38:58;;;;;;;;;11.00;9.00;;;;;19.05;55.93;100679.50;5056447;28;45341;-58
2021/08/04 04:41:24;;;;;;;;;14.00;11.33;;;;;19.07;55.85;100676.75;5051790;28;45368;-59
2021/08/04 04:43:49;;;;;;;;;9.00;9.00;;;;;19.09;55.86;100677.53;5083171;27;47114;-59
2021/08/04 04:46:15;;;;;;;;;11.25;11.00;;;;;19.11;55.75;100681.84;5050770;28;45884;-57
2021/08/04 04:48:40;;;;;;;;;13.67;12.33;;;;;19.14;56.02;100679.94;5077159;28;45599;-57
2021/08/04 04:51:06;;;;;;;;;12.33;9.33;;;;;19.16;56.19;100686.09;5061330;27;45289;-58
2021/08/04 04:53:33;;;;;;;;;10.00;9.00;;;;;19.18;55.94;100682.34;5059986;28;74639;-58
2021/08/04 04:56:15;;;;;;;;;10.00;10.00;;;;;19.21;55.90;100684.03;5060074;28;45845;-58
2021/08/04 04:58:41;;;;;;;;;10.33;10.33;;;;;19.21;55.91;100679.50;5063639;28;45382;-58
2021/08/04 05:01:06;;;;;;;;;13.00;13.00;;;;;19.24;55.72;100691.91;5052060;28;45330;-56
2021/08/04 05:03:31;;;;;;;;;14.00;14.00;;;;;19.28;55.68;100682.69;5054489;28;47449;-55
2021/08/04 05:05:57;;;;;;;;;12.00;12.00;;;;;19.30;55.36;100683.47;5060880;28;45389;-54
2021/08/04 05:08:22;;;;;;;;;9.00;9.00;;;;;19.33;55.32;100686.88;5060582;27;45608;-54
2021/08/04 05:10:48;;;;;;;;;12.33;12.33;;;;;19.36;55.37;100696.59;5064420;28;45686;-56
2021/08/04 05:13:13;;;;;;;;;12.00;12.00;;;;;19.38;55.67;100692.84;5054804;27;47133;-54
2021/08/04 05:15:39;;;;;;;;;11.00;9.75;;;;;19.41;55.29;100695.34;5064558;28;45299;-55
2021/08/04 05:18:04;;;;;;;;;12.33;11.67;;;;;19.43;55.19;100700.63;5062067;27;45448;-55
2021/08/04 05:20:30;;;;;;;;;10.33;10.00;;;;;19.43;54.53;100700.63;5061548;27;47198;-56
2021/08/04 05:22:56;;;;;;;;;11.00;10.00;;;;;19.41;54.66;100700.72;5052990;28;47474;-56
2021/08/04 05:25:23;;;;;;;;;20.00;17.50;;;;;19.42;54.66;100701.59;5060671;28;45285;-56
2021/08/04 05:27:49;;;;;;;;;17.25;16.00;;;;;19.42;54.61;100702.47;5052888;28;45356;-54
2021/08/04 05:30:15;;;;;;;;;14.00;12.67;;;;;19.44;54.47;100704.19;5061377;28;45371;-53
2021/08/04 05:32:41;;;;;;;;;9.67;8.33;;;;;19.46;54.62;100702.31;5056859;28;48031;-54
2021/08/04 05:35:07;;;;;;;;;10.33;9.67;;;;;19.48;54.70;100697.69;5063410;28;45471;-56
2021/08/04 05:37:32;;;;;;;;;10.00;10.00;;;;;19.50;54.26;100695.78;5059882;28;45410;-56
2021/08/04 05:39:58;;;;;;;;;7.00;7.00;;;;;19.52;54.64;100704.63;5058083;28;45575;-56
2021/08/04 05:42:23;;;;;;;;;9.00;9.00;;;;;19.52;54.13;100697.41;5081722;27;46982;-56
2021/08/04 05:44:49;;;;;;;;;7.00;7.00;;;;;19.53;54.06;100703.66;5060130;28;45900;-56
2021/08/04 05:47:16;;;;;;;;;10.33;10.33;;;;;19.54;53.97;100708.06;5059062;27;45468;-55
2021/08/04 05:49:41;;;;;;;;;10.67;10.00;;;;;19.54;53.84;100703.56;5051399;28;46279;-56
2021/08/04 05:52:07;;;;;;;;;9.33;9.33;;;;;19.56;53.79;100703.50;5056953;28;47943;-56
2021/08/04 05:54:33;;;;;;;;;11.25;10.25;;;;;19.57;53.58;100711.50;5059478;28;45754;-56
2021/08/04 05:56:58;;;;;;;;;9.67;9.67;;;;;19.59;53.88;100714.97;5054610;28;45380;-56
2021/08/04 05:59:24;;;;;;;;;8.33;8.00;;;;;19.65;53.98;100706.53;5056794;28;45392;-56
2021/08/04 06:01:49;;;;;;;;;13.67;12.00;;;;;19.71;53.95;100708.00;5072297;28;46914;-56
2021/08/04 06:04:14;;;;;;;;;14.67;14.67;;;;;19.76;53.75;100708.56;5053214;28;45368;-55
2021/08/04 06:06:40;;;;;;;;;12.67;12.67;;;;;19.84;54.12;100709.00;5059679;28;45294;-56
2021/08/04 06:09:06;;;;;;;;;12.00;12.00;;;;;19.89;53.29;100709.56;5054220;28;45538;-56
2021/08/04 06:11:32;;;;;;;;;13.33;11.00;;;;;19.93;53.71;100705.72;5054676;28;47283;-57
2021/08/04 06:13:58;;;;;;;;;11.33;11.00;;;;;19.99;53.16;100710.75;5052950;28;45800;-56
2021/08/04 06:16:23;;;;;;;;;11.00;11.00;;;;;20.05;53.53;100705.94;5051923;28;45620;-56
2021/08/04 06:18:48;;;;;;;;;14.00;12.00;;;;;20.10;53.12;100706.53;5052337;28;45447;-58
2021/08/04 06:21:14;;;;;;;;;10.67;10.67;;;;;20.14;53.53;100703.56;5052545;28;47064;-55
2021/08/04 06:23:40;;;;;;;;;10.67;10.67;;;;;20.19;53.41;100703.25;5053690;28;45595;-57
2021/08/04 06:26:05;;;;;;;;;11.33;11.33;;;;;20.22;52.75;100703.97;5064230;28;45374;-55
2021/08/04 06:28:31;;;;;;;;;12.67;10.00;;;;;20.26;52.55;100701.94;5056509;28;45605;-57
2021/08/04 06:30:56;;;;;;;;;13.00;10.67;;;;;20.28;52.54;100694.63;5083527;27;46961;-56
2021/08/04 06:33:22;;;;;;;;;11.00;11.00;;;;;20.32;52.03;100703.38;5058275;28;45726;-57
2021/08/04 06:35:47;;;;;;;;;8.33;8.33;;;;;20.35;52.31;100703.19;5075949;27;45373;-57
2021/08/04 06:38:13;;;;;;;;;7.00;7.00;;;;;20.40;52.29;100698.38;5058711;28;45434;-57
2021/08/04 06:40:39;;;;;;;;;8.67;8.67;;;;;20.42;52.19;100694.66;5058657;28;47733;-55
2021/08/04 06:43:05;;;;;;;;;11.00;11.00;;;;;20.49;52.30;100704.09;5059628;28;45905;-57
2021/08/04 06:45:30;;;;;;;;;8.33;8.00;;;;;20.54;51.92;100699.25;5059519;28;45538;-57
2021/08/04 06:47:56;;;;;;;;;10.33;9.00;;;;;20.62;51.83;100700.63;5053073;28;45436;-57
2021/08/04 06:50:23;;;;;;;;;9.00;9.00;;;;;20.65;51.72;100703.13;5055709;28;46984;-57
2021/08/04 06:52:49;;;;;;;;;10.33;10.33;;;;;20.70;51.66;100704.53;5062236;28;45471;-57
2021/08/04 06:55:15;;;;;;;;;10.00;10.00;;;;;20.75;51.35;100697.03;5070639;27;45668;-57
2021/08/04 06:57:40;;;;;;;;;9.33;9.33;;;;;20.80;51.62;100699.44;5063916;28;45503;-58
2021/08/04 07:00:07;;;;;;;;;10.33;9.67;;;;;20.84;51.36;100696.47;5054262;28;47880;-57
2021/08/04 07:02:32;;;;;;;;;11.00;11.00;;;;;20.88;51.26;100697.13;5067096;28;45783;-57
2021/08/04 07:04:57;;;;;;;;;13.33;13.33;;;;;20.91;51.06;100706.84;5055295;28;45452;-57
2021/08/04 07:07:23;;;;;;;;;11.00;8.00;;;;;20.92;50.82;100704.03;5067900;28;45413;-56
2021/08/04 07:09:48;;;;;;;;;13.67;12.00;;;;;20.93;50.96;100705.75;5062311;28;47931;-58
2021/08/04 07:12:14;;;;;;;;;11.67;10.33;;;;;20.96;50.89;100707.38;5062803;27;45633;-58
2021/08/04 07:14:39;;;;;;;;;9.67;9.67;;;;;20.98;51.07;100708.19;5052214;27;47604;-58
2021/08/04 07:17:05;;;;;;;;;9.33;8.00;;;;;20.99;51.02;100710.78;5049123;28;45521;-58
2021/08/04 07:19:31;;;;;;;;;12.67;12.00;;;;;20.99;50.27;100705.38;5056444;28;47517;-58
2021/08/04 07:21:56;;;;;;;;;8.00;8.00;;;;;20.97;50.43;100707.31;5084867;27;45409;-58
2021/08/04 07:24:22;;;;;;;;;5.33;5.33;;;;;20.97;50.22;100714.53;5078276;27;45544;-58
2021/08/04 07:26:48;;;;;;;;;10.67;10.67;;;;;20.95;49.87;100709.22;5057794;28;45735;-58
2021/08/04 07:29:13;;;;;;;;;9.67;9.67;;;;;20.95;49.93;100706.53;5073785;28;46927;-58
2021/08/04 07:31:40;;;;;;;;;9.00;9.00;;;;;20.93;49.44;100707.59;5051352;28;45549;-57
2021/08/04 07:34:06;;;;;;;;;7.00;7.00;;;;;20.93;49.73;100708.47;5052766;28;45512;-57
2021/08/04 07:36:31;;;;;;;;;8.00;8.00;;;;;20.94;49.99;100709.31;5040451;28;45499;-59
2021/08/04 07:38:57;;;;;;;;;7.00;6.00;;;;;20.95;50.16;100703.81;5051641;28;47337;-57
2021/08/04 07:41:22;;;;;;;;;7.33;7.33;;;;;20.98;49.97;100709.03;5049063;28;45594;-59
2021/08/04 07:43:51;;;;;;;;;6.00;5.00;;;;;21.01;50.03;100703.44;5058625;28;45389;-58
2021/08/04 07:46:18;;;;;;;;;7.00;7.00;;;;;21.07;49.76;100710.25;5057633;28;45498;-61
2021/08/04 07:48:45;;;;;;;;;7.33;6.67;;;;;21.10;49.41;100708.25;5058366;28;46455;-57
2021/08/04 07:51:11;;;;;;;;;9.00;7.33;;;;;21.15;49.45;100707.94;5056082;28;45673;-57
2021/08/04 07:53:37;;;;;;;;;6.33;6.33;;;;;21.19;49.83;100706.75;5056110;28;45408;-57
2021/08/04 07:56:02;;;;;;;;;5.33;5.33;;;;;21.22;49.12;100708.41;5071258;28;45457;-57
2021/08/04 07:58:28;;;;;;;;;5.00;5.00;;;;;21.25;49.58;100708.19;5042185;28;46947;-57
2021/08/04 08:00:53;;;;;;;;;6.67;6.00;;;;;21.29;49.30;100707.91;5062666;28;45882;-57
2021/08/04 08:03:19;;;;;;;;;8.00;8.00;;;;;21.33;49.15;100708.56;5058294;28;45381;-56
2021/08/04 08:05:44;;;;;;;;;7.00;7.00;;;;;21.34;49.06;100705.78;5053557;28;45366;-57
2021/08/04 08:08:10;;;;;;;;;9.00;9.00;;;;;21.38;49.10;100703.75;5058646;28;48267;-57
2021/08/04 08:10:37;;;;;;;;;6.67;6.33;;;;;21.42;48.77;100711.53;5078197;27;45688;-57
2021/08/04 08:13:03;;;;;;;;;8.00;6.33;;;;;21.43;48.76;100704.28;5053815;28;45819;-56
2021/08/04 08:15:30;;;;;;;;;8.00;7.00;;;;;21.41;48.50;100717.91;5059735;28;45400;-57
2021/08/04 08:17:55;;;;;;;;;11.00;8.75;;;;;21.35;48.28;100693.16;5059420;28;48214;-56
2021/08/04 08:20:22;;;;;;;;;7.00;7.00;;;;;21.30;48.47;100709.66;5060279;28;45364;-56
2021/08/04 08:22:49;;;;;;;;;7.33;6.67;;;;;21.25;48.59;100706.41;5052761;28;45596;-57
2021/08/04 08:25:15;;;;;;;;;8.00;7.00;;;;;21.21;48.43;100709.34;5058847;28;45465;-57
2021/08/04 08:27:41;;;;;;;;;9.00;7.00;;;;;21.17;48.80;100703.28;5059996;27;48444;-57
2021/08/04 08:30:09;;;;;;;;;9.00;9.00;;;;;21.13;48.30;100707.19;5054886;28;45543;-57
2021/08/04 08:32:34;;;;;;;;;6.67;6.67;;;;;21.10;48.47;100699.28;5057460;28;45442;-57
2021/08/04 08:35:00;;;;;;;;;6.33;6.33;;;;;21.07;48.38;100700.31;5077271;27;45520;-57
2021/08/04 08:37:26;;;;;;;;;8.33;7.33;;;;;21.06;48.53;100697.72;5059756;28;48245;-55
2021/08/04 08:39:51;;;;;;;;;7.33;7.00;;;;;21.06;48.37;100700.44;5066585;28;45345;-57
2021/08/04 08:42:19;;;;;;;;;9.00;9.00;;;;;21.06;48.42;100697.72;5059763;28;45559;-57
2021/08/04 08:44:46;;;;;;;;;7.00;7.00;;;;;21.07;48.38;100699.47;5090436;27;45660;-55
2021/08/04 08:47:12;;;;;;;;;6.67;6.67;;;;;21.08;48.21;100698.50;5082044;27;46886;-57
2021/08/04 08:49:42;;;;;;;;;6.00;6.00;;;;;21.10;48.30;100702.00;5056420;28;45451;-57
2021/08/04 08:52:08;;;;;;;;;6.00;6.00;;;;;21.11;48.39;100693.78;5087338;27;45590;-57
2021/08/04 08:54:33;;;;;;;;;8.00;8.00;;;;;21.18;47.78;100702.31;5057806;28;45306;-56
2021/08/04 08:56:59;;;;;;;;;7.33;6.33;;;;;21.24;47.87;100698.38;5056239;28;48248;-57
2021/08/04 08:59:25;;;;;;;;;5.00;4.67;;;;;21.25;47.61;100690.19;5072932;27;45658;-56
2021/08/04 09:01:51;;;;;;;;;6.00;6.00;;;;;21.29;48.17;100688.16;5056024;28;45351;-57
2021/08/04 09:04:17;;;;;;;;;8.00;8.00;;;;;21.34;48.05;100702.19;5070124;28;45524;-56
2021/08/04 09:06:44;;;;;;;;;5.00;5.00;;;;;21.40;48.25;100691.88;5055116;28;47187;-57
2021/08/04 09:09:18;;;;;;;;;8.67;8.00;;;;;21.50;47.76;100696.66;5053293;28;45548;-56
2021/08/04 09:11:44;;;;;;;;;7.00;7.00;;;;;21.58;47.32;100700.56;5070489;28;45889;-56
2021/08/04 09:14:09;;;;;;;;;5.00;5.00;;;;;21.67;47.62;100693.69;5061501;28;45682;-56
2021/08/04 09:16:36;;;;;;;;;5.67;5.00;;;;;21.76;46.76;100695.75;5051400;28;48085;-57
2021/08/04 09:19:01;;;;;;;;;5.33;5.00;;;;;21.84;46.60;100697.91;5057805;28;46208;-57
2021/08/04 09:21:27;;;;;;;;;7.75;7.25;;;;;21.88;46.78;100705.72;5051583;28;46990;-57
2021/08/04 09:23:55;;;;;;;;;5.33;5.33;;;;;21.95;46.90;100696.19;5045487;28;45527;-58
2021/08/04 09:26:22;;;;;;;;;6.00;6.00;;;;;22.00;46.02;100691.34;5055397;28;48195;-58
2021/08/04 09:29:03;;;;;;;;;6.00;6.00;;;;;22.04;45.75;100692.00;5052189;28;46638;-57
2021/08/04 09:31:56;;;;;;;;;5.67;5.67;;;;;22.09;46.03;100686.28;5064205;27;45480;-57
2021/08/04 09:34:34;;;;;;;;;6.67;6.67;;;;;22.16;46.29;100688.47;5052487;28;45710;-57
2021/08/04 09:37:19;;;;;;;;;7.67;7.00;;;;;22.26;46.43;100683.28;5068904;28;48336;-56
2021/08/04 09:40:05;;;;;;;;;6.33;5.33;;;;;22.36;46.12;100680.78;5058542;28;45415;-57
2021/08/04 09:42:49;;;;;;;;;5.00;4.67;;;;;22.50;46.03;100683.38;5060202;28;45633;-57
2021/08/04 09:45:37;;;;;;;;;5.00;5.00;;;;;22.63;45.66;100683.38;5059025;28;45508;-57
2021/08/04 09:48:08;;;;;;;;;3.00;3.00;;;;;22.74;45.36;100676.19;5058178;28;48415;-58
2021/08/04 09:50:46;;;;;;;;;2.67;2.67;;;;;22.84;45.38;100681.81;5056830;28;45471;-56
2021/08/04 09:53:17;;;;;;;;;7.00;6.00;;;;;22.92;45.02;100676.72;5058263;28;45613;-59
2021/08/04 09:56:01;;;;;;;;;6.67;6.67;;;;;23.04;45.36;100670.38;5084566;27;45515;-57
2021/08/04 09:58:26;;;;;;;;;5.67;5.67;;;;;23.22;44.47;100675.41;5058653;28;47544;-57
2021/08/04 10:00:52;;;;;;;;;13.33;10.33;;;;;23.38;44.81;100665.16;5055883;28;45734;-57
2021/08/04 10:03:17;;;;;;;;;8.67;7.00;;;;;23.55;44.44;100664.72;5057376;28;45600;-59
2021/08/04 10:05:44;;;;;;;;;6.00;6.00;;;;;23.69;44.08;100661.84;5060845;28;45528;-59
2021/08/04 10:08:11;;;;;;;;;5.33;5.00;;;;;23.80;43.81;100665.56;5059139;27;46289;-58
2021/08/04 10:10:43;;;;;;;;;7.00;7.00;;;;;23.89;43.39;100659.44;5059838;28;45338;-59
2021/08/04 10:13:13;;;;;;;;;8.33;8.33;;;;;23.95;43.64;100659.81;5054862;28;45373;-58
2021/08/04 10:15:42;;;;;;;;;7.00;7.00;;;;;23.98;43.47;100662.28;5082774;27;45526;-59
2021/08/04 10:18:17;;;;;;;;;6.33;6.33;;;;;24.00;43.30;100657.59;5083459;27;47445;-59
2021/08/04 10:20:45;;;;;;;;;7.67;7.67;;;;;24.02;43.30;100660.22;5074135;27;45979;-57
2021/08/04 10:23:17;;;;;;;;;7.00;7.00;;;;;24.01;42.83;100650.31;5057859;28;45452;-58
2021/08/04 10:25:44;;;;;;;;;7.00;7.00;;;;;23.96;43.01;100645.28;5075499;28;45452;-58
2021/08/04 10:28:11;;;;;;;;;6.33;5.33;;;;;23.95;43.28;100646.25;5046850;28;48231;-59
2021/08/04 10:30:37;;;;;;;;;7.67;7.67;;;;;23.98;43.20;100650.56;5053592;28;45546;-57
2021/08/04 10:33:05;;;;;;;;;5.67;5.67;;;;;24.03;43.10;100653.81;5038160;28;45559;-57
2021/08/04 10:35:33;;;;;;;;;8.33;8.00;;;;;24.05;43.17;100646.41;5059509;28;45415;-57
2021/08/04 10:38:00;;;;;;;;;7.33;6.67;;;;;24.04;42.86;100653.69;5055036;28;48216;-58
2021/08/04 10:40:26;;;;;;;;;11.67;10.00;;;;;24.00;43.19;100644.03;5091703;27;45711;-58
2021/08/04 10:42:53;;;;;;;;;15.00;15.00;;;;;23.93;43.16;100641.94;5057014;28;45631;-57
2021/08/04 10:45:27;;;;;;;;;58.00;47.25;;;;;23.89;43.47;100638.63;5088512;27;45615;-58
2021/08/04 10:48:15;;;;;;;;;42.25;35.00;;;;;23.84;42.99;100654.38;5057564;28;48204;-58
2021/08/04 10:51:10;;;;;;;;;22.75;22.50;;;;;23.79;43.13;100643.03;5058152;28;45454;-57
2021/08/04 10:54:02;;;;;;;;;9.33;9.00;;;;;23.75;42.96;100642.38;5059464;28;45447;-58
2021/08/04 10:56:37;;;;;;;;;12.00;12.00;;;;;23.74;43.37;100642.50;5074616;27;45644;-57
2021/08/04 10:59:08;;;;;;;;;8.67;8.67;;;;;23.72;43.15;100641.78;5059445;28;47254;-58
2021/08/04 11:01:39;;;;;;;;;9.00;9.00;;;;;23.70;43.59;100641.03;5056148;28;45710;-57
2021/08/04 11:04:06;;;;;;;;;24.00;22.25;;;;;23.69;43.42;100651.00;5087006;27;45509;-57
2021/08/04 11:06:31;;;;;;;;;46.00;40.00;;;;;23.72;43.54;100648.06;5032625;28;45390;-58
2021/08/04 11:09:12;;;;;;;;;62.50;49.25;;;;;23.74;43.25;100648.78;5068427;28;47631;-57
2021/08/04 11:11:57;;;;;;;;;30.50;29.25;;;;;23.71;43.41;100640.91;5054295;28;45625;-57
2021/08/04 11:14:43;;;;;;;;;11.00;10.67;;;;;23.70;43.51;100644.59;5055273;28;45487;-57
2021/08/04 11:17:12;;;;;;;;;9.33;9.00;;;;;23.64;43.23;100652.38;5079365;27;45460;-57
2021/08/04 11:20:09;;;;;;;;;9.67;9.33;;;;;23.59;43.40;100652.69;5077981;27;47621;-57
2021/08/04 11:22:34;;;;;;;;;13.33;13.00;;;;;23.55;44.29;100655.75;5035465;28;45712;-56
2021/08/04 11:25:06;;;;;;;;;9.00;9.00;;;;;23.52;44.08;100650.56;5059023;28;45487;-55